Time;durP1;ratioP1;P1;durP2;ratioP2;P2;SDS_P1;SDS_P2;PMS_P1;PMS_P2;Temp;Humidity;BMP_temperature;BMP_pressure;BME280_temperature;BME280_humidity;BME280_pressure;Samples;Min_cycle;Max_cycle;Signal;HPM_P1;HPM_P2
2021/07/15 00:01:50;;;;;;;2.20;0.63;;;16.50;99.90;;;;;;5072478;28;20447;-66
2021/07/15 00:04:17;;;;;;;3.90;0.70;;;16.30;99.90;;;;;;5071577;28;20463;-65
2021/07/15 00:06:44;;;;;;;2.73;0.70;;;16.20;99.90;;;;;;5072388;28;20968;-65
2021/07/15 00:09:13;;;;;;;1.87;0.70;;;16.20;99.90;;;;;;5072155;28;20453;-65
2021/07/15 00:11:44;;;;;;;1.90;0.50;;;16.10;99.90;;;;;;5072462;28;20482;-66
2021/07/15 00:14:11;;;;;;;2.10;0.60;;;16.00;99.90;;;;;;5072454;28;20471;-66
2021/07/15 00:16:39;;;;;;;2.40;0.70;;;16.00;99.90;;;;;;5072465;28;20474;-66
2021/07/15 00:19:09;;;;;;;1.90;0.60;;;15.90;99.90;;;;;;5071840;28;20465;-67
2021/07/15 00:21:36;;;;;;;1.90;0.60;;;15.90;99.90;;;;;;5072698;28;21060;-67
2021/07/15 00:24:05;;;;;;;1.80;0.60;;;15.90;99.90;;;;;;5072485;28;20477;-66
2021/07/15 00:26:31;;;;;;;3.73;0.60;;;15.90;99.90;;;;;;5072334;28;20826;-66
2021/07/15 00:28:58;;;;;;;2.80;0.67;;;15.90;99.90;;;;;;5072136;28;20443;-66
2021/07/15 00:31:25;;;;;;;1.90;0.60;;;15.90;99.90;;;;;;5072118;28;20471;-66
2021/07/15 00:33:53;;;;;;;1.80;0.70;;;15.80;99.90;;;;;;5071926;28;20467;-64
2021/07/15 00:36:21;;;;;;;2.10;0.60;;;15.80;99.90;;;;;;5072249;28;20459;-65
2021/07/15 00:38:48;;;;;;;1.90;0.60;;;15.80;99.90;;;;;;5071967;28;20458;-66
2021/07/15 00:41:15;;;;;;;2.50;0.80;;;15.80;99.90;;;;;;5071633;28;20959;-66
2021/07/15 00:43:41;;;;;;;2.00;0.70;;;15.70;99.90;;;;;;5071663;28;20478;-67
2021/07/15 00:46:08;;;;;;;3.60;0.90;;;15.70;99.90;;;;;;5071733;28;20477;-66
2021/07/15 00:48:35;;;;;;;2.47;0.60;;;15.70;99.90;;;;;;5071467;28;20449;-66
2021/07/15 00:51:05;;;;;;;2.80;0.67;;;15.60;99.90;;;;;;5071292;28;20488;-66
2021/07/15 00:53:31;;;;;;;3.00;0.90;;;15.70;99.90;;;;;;5071665;28;20481;-66
2021/07/15 00:55:58;;;;;;;4.63;0.80;;;15.60;99.90;;;;;;5071679;28;20443;-66
2021/07/15 00:58:26;;;;;;;2.00;0.60;;;15.60;99.90;;;;;;5071485;28;20796;-67
2021/07/15 01:00:53;;;;;;;1.80;0.50;;;15.60;99.90;;;;;;5071022;28;20439;-66
2021/07/15 01:03:21;;;;;;;1.90;0.63;;;15.60;99.90;;;;;;5071492;28;20469;-66
2021/07/15 01:05:50;;;;;;;1.80;0.60;;;15.60;99.90;;;;;;5071403;28;20449;-67
2021/07/15 01:08:19;;;;;;;1.80;0.60;;;15.60;99.90;;;;;;5071235;28;20533;-66
2021/07/15 01:10:49;;;;;;;2.17;0.70;;;15.60;99.90;;;;;;5071085;28;20553;-66
2021/07/15 01:13:36;;;;;;;1.90;0.70;;;15.50;99.90;;;;;;5070956;28;20553;-66
2021/07/15 01:16:11;;;;;;;2.00;0.70;;;15.50;99.90;;;;;;5071346;28;20880;-66
2021/07/15 01:19:29;;;;;;;2.03;0.70;;;15.50;99.90;;;;;;5071132;28;20549;-66
2021/07/15 01:22:09;;;;;;;2.50;0.70;;;15.60;99.90;;;;;;5045072;28;20462;-66
2021/07/15 01:25:25;;;;;;;2.43;0.80;;;15.60;99.90;;;;;;5070591;28;20461;-66
2021/07/15 01:28:00;;;;;;;1.90;0.63;;;15.60;99.90;;;;;;5070629;28;20451;-66
2021/07/15 01:30:32;;;;;;;1.90;0.60;;;15.60;99.90;;;;;;5070252;28;20481;-65
2021/07/15 01:33:06;;;;;;;1.90;0.70;;;15.60;99.90;;;;;;5070301;28;20487;-66
2021/07/15 01:35:41;;;;;;;2.73;1.03;;;15.60;99.90;;;;;;5070662;28;20438;-67
2021/07/15 01:38:10;;;;;;;1.90;0.70;;;15.50;99.90;;;;;;5071005;28;20449;-65
2021/07/15 01:40:48;;;;;;;2.10;0.77;;;15.50;99.90;;;;;;5070559;28;20451;-66
2021/07/15 01:43:21;;;;;;;1.83;0.67;;;15.50;99.90;;;;;;5070475;28;21056;-65
2021/07/15 01:45:50;;;;;;;2.03;0.80;;;15.40;99.90;;;;;;5070747;28;20439;-66
2021/07/15 01:48:17;;;;;;;2.40;1.00;;;15.40;99.90;;;;;;5070425;28;20942;-65
2021/07/15 01:50:44;;;;;;;2.83;0.60;;;15.40;99.90;;;;;;5070214;28;20454;-65
2021/07/15 01:53:13;;;;;;;1.90;0.70;;;15.40;99.90;;;;;;5070471;28;20487;-65
2021/07/15 01:55:41;;;;;;;1.80;0.53;;;15.40;99.90;;;;;;5070468;28;20458;-65
2021/07/15 01:58:09;;;;;;;1.87;0.73;;;15.50;99.90;;;;;;5070467;28;20458;-65
2021/07/15 02:00:38;;;;;;;2.00;0.70;;;15.50;99.90;;;;;;5069996;28;20447;-66
2021/07/15 02:03:08;;;;;;;2.43;0.73;;;15.50;99.90;;;;;;5070434;28;20471;-68
2021/07/15 02:05:38;;;;;;;2.10;0.70;;;15.50;99.90;;;;;;5070424;28;20474;-65
2021/07/15 02:08:05;;;;;;;2.10;0.70;;;15.60;99.90;;;;;;5070123;28;20451;-66
2021/07/15 02:10:35;;;;;;;2.60;0.50;;;15.60;99.90;;;;;;5070072;28;20823;-66
2021/07/15 02:13:02;;;;;;;2.90;0.60;;;15.60;99.90;;;;;;5070117;28;20479;-65
2021/07/15 02:15:31;;;;;;;2.00;0.50;;;15.60;99.90;;;;;;5070025;28;21085;-65
2021/07/15 02:17:59;;;;;;;1.90;0.60;;;15.60;99.90;;;;;;5070027;28;20466;-66
2021/07/15 02:20:34;;;;;;;2.57;0.60;;;15.70;99.90;;;;;;5069750;28;20447;-65
2021/07/15 02:23:01;;;;;;;2.90;0.60;;;15.70;99.90;;;;;;5070220;28;20478;-66
2021/07/15 02:25:29;;;;;;;2.50;0.63;;;15.70;99.90;;;;;;5070336;28;20526;-66
2021/07/15 02:28:00;;;;;;;1.80;0.60;;;15.70;99.90;;;;;;5069663;28;20922;-67
2021/07/15 02:30:27;;;;;;;1.80;0.50;;;15.70;99.90;;;;;;5070292;28;20443;-65
2021/07/15 02:32:58;;;;;;;2.80;0.70;;;15.70;99.90;;;;;;5070299;28;20493;-65
2021/07/15 02:35:32;;;;;;;2.00;0.60;;;15.70;99.90;;;;;;5070313;28;20444;-66
2021/07/15 02:38:01;;;;;;;1.80;0.53;;;15.70;99.90;;;;;;5070173;28;20440;-66
2021/07/15 02:40:28;;;;;;;1.70;0.50;;;15.70;99.90;;;;;;5069605;28;20446;-65
2021/07/15 02:42:55;;;;;;;2.20;0.50;;;15.70;99.90;;;;;;5070291;28;20546;-66
2021/07/15 02:45:22;;;;;;;2.00;0.50;;;15.70;99.90;;;;;;5070074;28;20447;-66
2021/07/15 02:47:49;;;;;;;2.30;0.50;;;15.70;99.90;;;;;;5070067;28;20469;-66
2021/07/15 02:50:20;;;;;;;2.10;0.70;;;15.70;99.90;;;;;;5069355;28;20462;-65
2021/07/15 02:52:50;;;;;;;1.70;0.50;;;15.80;99.90;;;;;;5069651;28;21000;-66
2021/07/15 02:55:17;;;;;;;2.37;0.50;;;15.80;99.90;;;;;;5069714;28;20949;-66
2021/07/15 02:57:53;;;;;;;2.47;0.50;;;15.80;99.90;;;;;;5069678;28;20439;-65
2021/07/15 03:00:21;;;;;;;2.30;1.03;;;15.80;99.90;;;;;;5069508;28;20449;-66
2021/07/15 03:02:54;;;;;;;1.60;0.40;;;15.80;99.90;;;;;;5069574;28;20469;-66
2021/07/15 03:05:25;;;;;;;2.10;0.60;;;15.90;99.90;;;;;;5069664;28;20469;-67
2021/07/15 03:08:01;;;;;;;4.77;0.57;;;15.80;99.90;;;;;;5069467;28;20443;-66
2021/07/15 03:10:29;;;;;;;1.80;0.63;;;15.90;99.90;;;;;;5069361;28;20453;-66
2021/07/15 03:12:57;;;;;;;2.00;0.50;;;15.90;99.90;;;;;;5069433;28;20509;-66
2021/07/15 03:15:24;;;;;;;1.83;0.60;;;15.80;99.90;;;;;;5069513;28;20455;-65
2021/07/15 03:17:52;;;;;;;2.83;0.50;;;15.80;99.90;;;;;;5069131;28;20473;-66
2021/07/15 03:20:23;;;;;;;2.57;0.50;;;15.80;99.90;;;;;;5069378;28;20443;-67
2021/07/15 03:22:57;;;;;;;2.13;0.67;;;15.80;99.90;;;;;;5069599;28;20467;-66
2021/07/15 03:25:25;;;;;;;2.87;0.87;;;15.90;99.90;;;;;;5069586;28;20453;-66
2021/07/15 03:27:55;;;;;;;2.60;0.60;;;15.90;99.90;;;;;;5069521;28;20443;-66
2021/07/15 03:30:24;;;;;;;2.53;0.73;;;15.90;99.90;;;;;;5069011;28;20449;-66
2021/07/15 03:32:53;;;;;;;2.90;0.60;;;16.00;99.90;;;;;;5069551;28;20491;-66
2021/07/15 03:35:20;;;;;;;2.67;0.90;;;16.00;99.90;;;;;;5069541;28;20443;-67
2021/07/15 03:37:49;;;;;;;1.90;0.70;;;16.00;99.90;;;;;;5069396;28;20446;-66
2021/07/15 03:40:22;;;;;;;3.07;1.03;;;16.10;99.90;;;;;;5072327;28;20451;-66
2021/07/15 03:42:50;;;;;;;2.43;0.60;;;16.10;99.90;;;;;;5072650;28;20546;-66
2021/07/15 03:45:21;;;;;;;2.77;0.70;;;16.10;99.90;;;;;;5073163;28;20530;-66
2021/07/15 03:47:51;;;;;;;2.50;0.57;;;16.10;99.90;;;;;;5073053;28;20451;-66
2021/07/15 03:50:22;;;;;;;2.63;0.57;;;16.10;99.90;;;;;;5072640;28;20447;-66
2021/07/15 03:52:51;;;;;;;2.03;0.70;;;16.10;99.90;;;;;;5072705;28;20544;-67
2021/07/15 03:55:23;;;;;;;2.93;0.80;;;16.10;99.90;;;;;;5072722;28;20538;-66
2021/07/15 03:57:51;;;;;;;2.90;0.70;;;16.20;99.90;;;;;;5072866;28;20454;-67
2021/07/15 04:00:21;;;;;;;1.80;0.70;;;16.20;99.90;;;;;;5072416;28;21031;-66
2021/07/15 04:02:48;;;;;;;1.83;0.60;;;16.20;99.90;;;;;;5072289;28;20463;-66
2021/07/15 04:05:16;;;;;;;2.20;0.77;;;16.20;99.90;;;;;;5072502;28;20823;-66
2021/07/15 04:07:44;;;;;;;2.70;0.70;;;16.20;99.90;;;;;;5072437;28;21011;-65
2021/07/15 04:10:13;;;;;;;2.23;0.80;;;16.20;99.90;;;;;;5071817;28;20451;-62
2021/07/15 04:12:42;;;;;;;2.77;0.90;;;16.20;99.90;;;;;;5072090;28;20486;-64
2021/07/15 04:15:11;;;;;;;1.90;0.60;;;16.30;99.90;;;;;;5072263;28;20470;-64
2021/07/15 04:17:43;;;;;;;1.77;0.60;;;16.30;99.90;;;;;;5072259;28;20903;-65
2021/07/15 04:20:12;;;;;;;2.57;0.90;;;16.30;99.90;;;;;;5071809;28;20798;-65
2021/07/15 04:22:42;;;;;;;1.83;0.60;;;16.30;99.90;;;;;;5071909;28;20471;-65
2021/07/15 04:25:12;;;;;;;2.20;0.70;;;16.30;99.90;;;;;;5071920;28;20908;-65
2021/07/15 04:27:39;;;;;;;2.10;0.70;;;16.30;99.90;;;;;;5071812;28;20447;-64
2021/07/15 04:30:09;;;;;;;2.20;0.70;;;16.40;99.90;;;;;;5071669;28;20455;-65
2021/07/15 04:32:40;;;;;;;2.37;0.60;;;16.50;99.90;;;;;;5071897;28;20486;-64
2021/07/15 04:35:09;;;;;;;1.80;0.50;;;16.50;99.90;;;;;;5071699;28;20533;-65
2021/07/15 04:37:38;;;;;;;1.90;0.50;;;16.50;99.90;;;;;;5071541;28;21101;-67
2021/07/15 04:40:07;;;;;;;2.53;0.70;;;16.60;99.90;;;;;;5071619;28;20450;-69
2021/07/15 04:42:35;;;;;;;2.00;0.60;;;16.60;99.90;;;;;;5071547;28;20469;-66
2021/07/15 04:45:02;;;;;;;1.90;0.50;;;16.60;99.90;;;;;;5071740;28;20443;-65
2021/07/15 04:47:32;;;;;;;1.80;0.57;;;16.70;99.90;;;;;;5071288;28;20451;-65
2021/07/15 04:49:59;;;;;;;3.10;0.60;;;16.70;99.90;;;;;;5071274;28;20534;-66
2021/07/15 04:52:28;;;;;;;2.03;0.70;;;16.70;99.90;;;;;;5071624;28;20498;-65
2021/07/15 04:54:57;;;;;;;2.23;0.80;;;16.80;99.90;;;;;;5071166;28;20945;-66
2021/07/15 04:57:25;;;;;;;1.70;0.50;;;16.90;99.90;;;;;;5071433;28;20839;-67
2021/07/15 04:59:52;;;;;;;2.17;0.60;;;16.90;99.90;;;;;;5070694;28;20956;-67
2021/07/15 05:02:22;;;;;;;3.20;0.77;;;16.90;99.90;;;;;;5070948;28;20447;-67
2021/07/15 05:04:50;;;;;;;2.63;0.53;;;17.00;99.90;;;;;;5070765;28;20447;-66
2021/07/15 05:07:17;;;;;;;2.37;0.60;;;17.00;99.90;;;;;;5074687;28;20449;-66
2021/07/15 05:09:44;;;;;;;2.57;0.53;;;17.00;99.90;;;;;;5079939;28;20462;-67
2021/07/15 05:12:12;;;;;;;1.80;0.60;;;17.10;99.90;;;;;;5085778;28;20485;-68
2021/07/15 05:14:41;;;;;;;2.70;0.73;;;17.10;99.90;;;;;;5089226;28;20529;-67
2021/07/15 05:17:09;;;;;;;2.27;0.67;;;17.20;99.90;;;;;;5088525;28;20492;-67
2021/07/15 05:19:36;;;;;;;2.00;0.60;;;17.30;99.90;;;;;;5085600;28;20462;-67
2021/07/15 05:22:05;;;;;;;2.37;0.80;;;17.30;99.90;;;;;;5089536;28;20453;-68
2021/07/15 05:24:32;;;;;;;4.90;0.70;;;17.30;99.90;;;;;;5090108;28;20450;-67
2021/07/15 05:27:00;;;;;;;2.47;0.80;;;17.30;99.90;;;;;;5089799;28;20891;-67
2021/07/15 05:29:27;;;;;;;2.20;0.77;;;17.20;99.90;;;;;;5090562;28;20529;-66
2021/07/15 05:31:54;;;;;;;1.90;0.70;;;17.30;99.90;;;;;;5091030;28;20541;-68
2021/07/15 05:34:21;;;;;;;2.33;0.70;;;17.10;99.90;;;;;;5090842;28;20511;-67
2021/07/15 05:36:49;;;;;;;2.10;0.80;;;17.10;99.90;;;;;;5090884;28;20446;-66
2021/07/15 05:39:17;;;;;;;3.23;0.90;;;17.10;99.90;;;;;;5090558;28;20843;-68
2021/07/15 05:41:44;;;;;;;4.23;1.00;;;17.00;99.90;;;;;;5090714;28;20483;-67
2021/07/15 05:44:11;;;;;;;2.17;0.60;;;17.10;99.90;;;;;;5090868;28;20822;-67
2021/07/15 05:46:38;;;;;;;2.30;0.70;;;17.10;99.90;;;;;;5090991;28;20446;-67
2021/07/15 05:49:05;;;;;;;2.60;1.10;;;17.30;99.90;;;;;;5090329;28;20824;-68
2021/07/15 05:51:32;;;;;;;2.20;0.80;;;17.40;99.90;;;;;;5090626;28;20456;-67
2021/07/15 05:53:59;;;;;;;2.83;0.70;;;17.40;99.90;;;;;;5090377;28;20492;-67
2021/07/15 05:56:27;;;;;;;2.77;1.07;;;17.50;99.90;;;;;;5090386;28;20446;-67
2021/07/15 05:58:54;;;;;;;2.33;0.60;;;17.50;99.90;;;;;;5090598;28;20446;-67
2021/07/15 06:01:21;;;;;;;3.40;0.73;;;17.60;99.90;;;;;;5089367;28;21031;-67
2021/07/15 06:03:48;;;;;;;2.30;0.67;;;17.60;99.90;;;;;;5090121;28;20462;-67
2021/07/15 06:06:15;;;;;;;3.10;0.63;;;17.50;99.90;;;;;;5090217;28;20449;-67
2021/07/15 06:08:42;;;;;;;2.90;0.67;;;17.60;99.90;;;;;;5090410;28;20446;-67
2021/07/15 06:11:09;;;;;;;3.00;0.80;;;17.60;99.90;;;;;;5089655;28;21069;-67
2021/07/15 06:13:37;;;;;;;2.70;0.80;;;17.60;99.90;;;;;;5090035;28;20489;-68
2021/07/15 06:16:05;;;;;;;2.37;0.70;;;17.60;99.90;;;;;;5090021;28;20462;-67
2021/07/15 06:18:31;;;;;;;2.10;0.80;;;17.50;99.90;;;;;;5090144;28;20460;-67
2021/07/15 06:20:59;;;;;;;2.97;1.00;;;17.50;99.90;;;;;;5089685;28;20472;-67
2021/07/15 06:23:26;;;;;;;2.43;0.87;;;17.60;99.90;;;;;;5089741;28;20999;-67
2021/07/15 06:25:53;;;;;;;3.40;0.77;;;17.80;99.90;;;;;;5090039;28;20446;-67
2021/07/15 06:28:20;;;;;;;2.70;1.30;;;18.10;99.90;;;;;;5089944;28;20452;-67
2021/07/15 06:30:49;;;;;;;3.03;0.80;;;18.40;99.90;;;;;;5089631;28;20473;-67
2021/07/15 06:33:16;;;;;;;3.00;0.77;;;18.70;99.90;;;;;;5089719;28;20482;-67
2021/07/15 06:35:45;;;;;;;2.40;0.70;;;18.80;99.90;;;;;;5089830;28;20453;-67
2021/07/15 06:38:12;;;;;;;2.67;0.60;;;18.90;99.90;;;;;;5089987;28;20438;-67
2021/07/15 06:40:39;;;;;;;2.40;0.70;;;19.10;99.90;;;;;;5089571;28;20533;-68
2021/07/15 06:43:06;;;;;;;2.73;0.70;;;19.40;99.90;;;;;;5089742;28;20474;-68
2021/07/15 06:45:32;;;;;;;2.70;0.57;;;19.60;99.90;;;;;;5089780;28;20477;-68
2021/07/15 06:48:01;;;;;;;3.83;0.90;;;19.90;99.90;;;;;;5089707;28;20448;-67
2021/07/15 06:50:27;;;;;;;5.30;0.80;;;20.00;99.90;;;;;;5089221;28;20530;-67
2021/07/15 06:52:54;;;;;;;2.13;0.80;;;20.30;99.90;;;;;;5089639;28;20488;-68
2021/07/15 06:55:21;;;;;;;2.80;0.70;;;20.60;99.90;;;;;;5089822;28;20454;-67
2021/07/15 06:57:48;;;;;;;2.07;0.63;;;20.60;99.90;;;;;;5089807;28;20442;-67
2021/07/15 07:00:17;;;;;;;2.00;0.60;;;20.30;99.90;;;;;;5089476;28;20940;-65
2021/07/15 07:02:46;;;;;;;2.20;0.83;;;20.10;99.90;;;;;;5089855;28;20472;-68
2021/07/15 07:05:15;;;;;;;3.17;1.00;;;19.90;99.90;;;;;;5089716;28;20450;-67
2021/07/15 07:07:42;;;;;;;2.73;0.70;;;19.80;99.90;;;;;;5090034;28;20533;-67
2021/07/15 07:10:11;;;;;;;5.40;1.00;;;19.90;99.90;;;;;;5089468;28;20529;-67
2021/07/15 07:12:39;;;;;;;2.23;0.57;;;19.90;99.90;;;;;;5090585;28;20462;-68
2021/07/15 07:15:12;;;;;;;1.80;0.60;;;20.00;99.90;;;;;;5093620;28;20628;-67
2021/07/15 07:17:39;;;;;;;2.70;0.70;;;20.00;99.90;;;;;;5093723;28;20434;-68
2021/07/15 07:20:08;;;;;;;2.30;0.60;;;20.00;99.90;;;;;;5093549;28;20442;-68
2021/07/15 07:22:36;;;;;;;1.80;0.50;;;19.90;99.90;;;;;;5093525;28;20557;-67
2021/07/15 07:25:04;;;;;;;3.20;0.70;;;19.90;99.90;;;;;;5092991;28;20528;-67
2021/07/15 07:27:32;;;;;;;3.50;0.90;;;19.90;99.90;;;;;;5093380;28;21047;-68
2021/07/15 07:29:58;;;;;;;3.17;0.70;;;20.00;99.90;;;;;;5093041;28;21162;-67
2021/07/15 07:32:26;;;;;;;2.20;0.90;;;19.90;99.90;;;;;;5093078;28;20866;-68
2021/07/15 07:34:54;;;;;;;2.10;0.70;;;19.90;99.90;;;;;;5093435;28;20850;-68
2021/07/15 07:37:21;;;;;;;2.20;0.70;;;19.60;99.90;;;;;;5093245;28;20537;-67
2021/07/15 07:39:49;;;;;;;2.57;0.70;;;19.30;99.90;;;;;;5092840;28;21006;-68
2021/07/15 07:42:16;;;;;;;1.70;0.50;;;19.20;99.90;;;;;;5092839;28;20468;-68
2021/07/15 07:44:42;;;;;;;2.37;0.60;;;19.00;99.90;;;;;;5093353;28;20790;-69
2021/07/15 07:47:10;;;;;;;2.20;0.60;;;18.80;99.90;;;;;;5093050;28;20460;-67
2021/07/15 07:49:36;;;;;;;2.07;0.67;;;19.00;99.90;;;;;;5092826;28;20977;-67
2021/07/15 07:52:05;;;;;;;3.10;0.50;;;19.20;99.90;;;;;;5092733;28;20545;-67
2021/07/15 07:54:32;;;;;;;2.00;0.60;;;19.40;99.90;;;;;;5092755;28;20482;-68
2021/07/15 07:57:00;;;;;;;3.20;0.60;;;19.60;99.90;;;;;;5092747;28;20438;-68
2021/07/15 07:59:27;;;;;;;2.67;0.70;;;19.80;99.90;;;;;;5092735;28;20456;-67
2021/07/15 08:01:54;;;;;;;1.93;0.60;;;20.10;99.90;;;;;;5092830;28;20456;-68
2021/07/15 08:04:21;;;;;;;2.13;0.70;;;20.10;99.90;;;;;;5092643;28;20481;-67
2021/07/15 08:06:49;;;;;;;2.03;0.60;;;20.50;99.90;;;;;;5092582;28;20454;-68
2021/07/15 08:09:17;;;;;;;4.23;0.60;;;20.80;99.90;;;;;;5092235;28;20450;-68
2021/07/15 08:11:46;;;;;;;1.90;0.50;;;21.00;99.90;;;;;;5092741;28;20523;-67
2021/07/15 08:14:14;;;;;;;2.63;0.67;;;21.00;99.90;;;;;;5092381;28;20489;-67
2021/07/15 08:16:41;;;;;;;3.90;0.50;;;21.00;99.90;;;;;;5092696;28;20912;-67
2021/07/15 08:19:08;;;;;;;2.10;0.60;;;20.70;99.90;;;;;;5092085;28;21189;-67
2021/07/15 08:21:35;;;;;;;3.50;0.77;;;20.50;99.90;;;;;;5092658;28;20441;-65
2021/07/15 08:24:02;;;;;;;2.80;0.53;;;20.50;99.90;;;;;;5091354;28;20500;-65
2021/07/15 08:26:29;;;;;;;1.70;0.50;;;20.70;99.90;;;;;;5092155;28;20533;-65
2021/07/15 08:28:56;;;;;;;1.97;0.57;;;20.90;99.90;;;;;;5092067;28;20521;-65
2021/07/15 08:31:25;;;;;;;4.43;0.70;;;21.10;99.90;;;;;;5091912;28;20446;-65
2021/07/15 08:33:52;;;;;;;3.07;0.70;;;21.20;99.90;;;;;;5092014;28;20573;-65
2021/07/15 08:36:19;;;;;;;2.30;0.97;;;21.30;99.90;;;;;;5091933;28;20446;-65
2021/07/15 08:38:46;;;;;;;2.37;0.67;;;21.40;99.90;;;;;;5092289;28;20450;-64
2021/07/15 08:41:13;;;;;;;2.20;0.83;;;21.20;99.90;;;;;;5091757;28;20508;-65
2021/07/15 08:43:40;;;;;;;2.10;0.97;;;20.90;99.90;;;;;;5092118;28;20536;-64
2021/07/15 08:46:07;;;;;;;2.00;0.70;;;20.80;99.90;;;;;;5091665;28;20458;-65
2021/07/15 08:48:37;;;;;;;2.50;0.80;;;20.70;99.90;;;;;;5091426;28;20438;-64
2021/07/15 08:51:04;;;;;;;2.47;0.60;;;20.20;99.90;;;;;;5091147;28;20526;-64
2021/07/15 08:53:32;;;;;;;2.03;0.67;;;19.90;99.90;;;;;;5091610;28;20486;-64
2021/07/15 08:58:44;;;;;;;2.00;0.50;;;19.80;99.90;;;;;;5091774;28;20468;-64
2021/07/15 09:01:12;;;;;;;2.00;0.60;;;20.00;99.90;;;;;;5091412;28;20471;-65
2021/07/15 09:03:41;;;;;;;3.10;0.73;;;20.00;99.90;;;;;;5091357;28;20460;-65
2021/07/15 09:06:08;;;;;;;1.77;0.50;;;20.10;99.90;;;;;;5091347;28;20442;-65
2021/07/15 09:08:35;;;;;;;2.27;0.70;;;20.20;99.90;;;;;;5091319;28;20453;-64
2021/07/15 09:11:03;;;;;;;1.87;0.57;;;20.40;99.90;;;;;;5090925;28;20450;-65
2021/07/15 09:13:30;;;;;;;2.03;0.53;;;20.80;99.90;;;;;;5090932;28;20995;-64
2021/07/15 09:15:57;;;;;;;2.87;0.63;;;20.90;99.90;;;;;;5090916;28;20541;-65
2021/07/15 09:18:23;;;;;;;2.27;0.60;;;21.30;99.90;;;;;;5091084;28;20458;-65
2021/07/15 09:20:52;;;;;;;2.13;0.60;;;21.60;99.90;;;;;;5090801;28;20446;-65
2021/07/15 09:23:19;;;;;;;2.17;0.60;;;22.20;99.90;;;;;;5091009;28;20838;-65
2021/07/15 09:25:57;;;;;;;1.77;0.50;;;22.70;99.90;;;;;;5090987;28;20455;-65
2021/07/15 09:28:32;;;;;;;3.73;0.77;;;22.80;99.90;;;;;;5090792;28;20477;-66
2021/07/15 09:31:22;;;;;;;2.23;0.60;;;23.20;99.90;;;;;;5090448;28;20949;-65
2021/07/15 09:33:49;;;;;;;2.00;0.70;;;23.60;99.90;;;;;;5090860;28;20508;-66
2021/07/15 09:36:26;;;;;;;2.80;0.70;;;24.00;99.90;;;;;;5089925;28;20444;-65
2021/07/15 09:38:53;;;;;;;2.00;0.60;;;24.40;99.90;;;;;;5090627;28;20533;-65
2021/07/15 09:41:21;;;;;;;2.60;0.60;;;24.70;99.90;;;;;;5090503;28;20485;-65
2021/07/15 09:43:49;;;;;;;3.40;0.63;;;24.70;99.90;;;;;;5090734;28;20484;-65
2021/07/15 09:46:22;;;;;;;2.90;0.60;;;23.90;99.90;;;;;;5090696;28;20541;-65
2021/07/15 09:48:50;;;;;;;1.80;0.53;;;23.60;99.90;;;;;;5090499;28;20434;-65
2021/07/15 09:51:19;;;;;;;3.80;0.90;;;23.30;99.90;;;;;;5090036;28;20544;-65
2021/07/15 09:53:47;;;;;;;1.90;0.60;;;22.90;99.90;;;;;;5090282;28;20482;-65
2021/07/15 09:56:17;;;;;;;3.10;0.57;;;22.30;99.90;;;;;;5090606;28;20481;-65
2021/07/15 09:58:45;;;;;;;2.20;0.60;;;22.20;99.90;;;;;;5090441;28;20438;-65
2021/07/15 10:01:14;;;;;;;1.90;0.60;;;22.40;99.90;;;;;;5090083;28;20846;-66
2021/07/15 10:03:44;;;;;;;2.40;0.50;;;22.70;99.90;;;;;;5090154;28;20912;-66
2021/07/15 10:06:12;;;;;;;2.77;0.70;;;23.10;99.90;;;;;;5090408;28;20953;-66
2021/07/15 10:08:42;;;;;;;2.00;0.60;;;23.40;99.90;;;;;;5090436;28;20450;-66
2021/07/15 10:11:18;;;;;;;3.20;0.90;;;24.40;99.90;;;;;;5090167;28;20543;-65
2021/07/15 10:13:46;;;;;;;2.80;0.70;;;24.80;99.90;;;;;;5090122;28;20468;-66
2021/07/15 10:16:13;;;;;;;1.90;0.60;;;24.80;99.90;;;;;;5090028;28;20464;-66
2021/07/15 10:18:43;;;;;;;3.30;0.70;;;24.00;99.90;;;;;;5090554;28;20464;-67
2021/07/15 10:21:13;;;;;;;4.80;0.70;;;23.90;99.90;;;;;;5089605;28;20453;-67
2021/07/15 10:23:42;;;;;;;2.87;0.60;;;23.40;99.90;;;;;;5089837;28;20519;-67
2021/07/15 10:26:11;;;;;;;3.70;0.70;;;23.40;99.90;;;;;;5083815;28;20446;-67
2021/07/15 10:28:39;;;;;;;2.13;0.60;;;23.30;99.90;;;;;;5078770;28;20934;-67
2021/07/15 10:31:08;;;;;;;2.20;0.70;;;23.30;99.90;;;;;;5070474;28;20443;-67
2021/07/15 10:33:35;;;;;;;1.90;0.60;;;23.50;99.90;;;;;;5076995;28;20459;-66
2021/07/15 10:36:05;;;;;;;2.20;0.60;;;24.10;99.90;;;;;;5089989;28;20438;-67
2021/07/15 10:38:37;;;;;;;2.87;0.80;;;24.10;99.90;;;;;;5090052;28;20442;-67
2021/07/15 10:41:06;;;;;;;4.10;0.93;;;23.70;99.90;;;;;;5089417;28;20446;-68
2021/07/15 10:43:34;;;;;;;4.10;0.90;;;23.60;99.90;;;;;;5086421;28;20463;-67
2021/07/15 10:46:02;;;;;;;3.20;0.83;;;23.50;99.90;;;;;;5089882;28;20442;-67
2021/07/15 10:48:30;;;;;;;2.67;0.80;;;23.40;99.90;;;;;;5092604;28;20450;-68
2021/07/15 10:50:57;;;;;;;3.07;0.63;;;23.30;99.90;;;;;;5090630;28;20532;-68
2021/07/15 10:53:25;;;;;;;2.30;0.70;;;23.60;99.90;;;;;;5073842;28;20497;-67
2021/07/15 10:55:53;;;;;;;2.60;0.90;;;24.10;99.90;;;;;;5079086;28;20577;-67
2021/07/15 10:58:44;;;;;;;2.70;0.80;;;24.30;99.90;;;;;;5083699;28;20438;-67
2021/07/15 11:01:11;;;;;;;2.13;0.70;;;24.00;99.90;;;;;;5072774;28;20816;-67
2021/07/15 11:03:38;;;;;;;2.10;0.60;;;24.10;99.90;;;;;;5073238;28;20992;-67
2021/07/15 11:06:05;;;;;;;2.40;0.50;;;24.10;99.90;;;;;;5073424;28;20439;-67
2021/07/15 11:08:55;;;;;;;2.40;0.70;;;23.90;99.90;;;;;;5073150;28;20945;-67
2021/07/15 11:11:36;;;;;;;5.03;1.23;;;24.10;99.90;;;;;;5073311;28;20828;-67
2021/07/15 11:14:05;;;;;;;3.00;0.73;;;24.20;99.90;;;;;;5073117;28;20564;-68
2021/07/15 11:16:47;;;;;;;1.80;0.50;;;24.10;99.90;;;;;;5073298;28;20443;-67
2021/07/15 11:20:03;;;;;;;2.47;0.60;;;24.00;99.90;;;;;;5072901;28;20662;-67
2021/07/15 11:22:34;;;;;;;1.87;0.60;;;23.30;99.90;;;;;;5076917;28;20524;-67
2021/07/15 11:25:03;;;;;;;2.13;0.70;;;22.40;99.90;;;;;;5077032;28;21005;-67
2021/07/15 11:27:41;;;;;;;2.00;0.80;;;21.70;99.90;;;;;;5077534;28;20479;-67
2021/07/15 11:30:12;;;;;;;2.87;1.00;;;21.00;99.90;;;;;;5076746;28;20515;-67
2021/07/15 11:32:39;;;;;;;1.90;0.70;;;20.20;99.90;;;;;;5077921;28;20819;-66
2021/07/15 11:35:27;;;;;;;2.00;0.70;;;19.70;99.90;;;;;;5076735;28;21008;-66
2021/07/15 11:38:11;;;;;;;1.93;0.60;;;19.10;99.90;;;;;;5076885;28;20538;-66
2021/07/15 11:40:46;;;;;;;2.07;0.83;;;18.90;99.90;;;;;;5076102;28;20482;-65
2021/07/15 11:43:31;;;;;;;2.13;0.77;;;18.80;99.90;;;;;;5074092;28;20981;-65
2021/07/15 11:46:14;;;;;;;2.13;0.70;;;18.80;99.90;;;;;;5072966;28;20479;-65
2021/07/15 11:49:01;;;;;;;1.90;0.80;;;18.90;99.90;;;;;;5072905;28;20451;-66
2021/07/15 11:51:31;;;;;;;2.13;0.80;;;18.90;99.90;;;;;;5073345;28;20478;-65
2021/07/15 11:54:25;;;;;;;2.00;0.83;;;19.00;99.90;;;;;;5073730;28;20968;-66
2021/07/15 11:56:55;;;;;;;2.57;0.60;;;19.20;99.90;;;;;;5073352;28;21039;-66
2021/07/15 11:59:37;;;;;;;2.17;0.80;;;19.50;99.90;;;;;;5071730;28;20439;-65
2021/07/15 12:02:10;;;;;;;2.00;0.70;;;20.00;99.90;;;;;;5073086;28;20454;-65
2021/07/15 12:05:06;;;;;;;2.33;0.80;;;20.50;99.90;;;;;;5072459;28;20441;-67
2021/07/15 12:07:33;;;;;;;2.60;0.80;;;20.70;99.90;;;;;;5072716;28;20450;-66
2021/07/15 12:10:02;;;;;;;2.20;0.83;;;21.10;99.90;;;;;;5071983;28;20449;-66
2021/07/15 12:12:30;;;;;;;2.20;0.70;;;21.30;99.90;;;;;;5072776;28;20501;-66
2021/07/15 12:14:57;;;;;;;3.33;0.80;;;21.50;99.90;;;;;;5072759;28;20505;-65
2021/07/15 12:17:31;;;;;;;4.07;2.50;;;21.80;99.90;;;;;;5072986;28;20538;-65
2021/07/15 12:20:00;;;;;;;1.80;0.60;;;21.90;99.90;;;;;;5072421;28;20465;-66
2021/07/15 12:22:28;;;;;;;2.80;0.60;;;22.10;99.90;;;;;;5089463;28;20568;-66
2021/07/15 12:25:13;;;;;;;2.23;0.77;;;22.50;99.90;;;;;;5089303;28;20512;-66
2021/07/15 12:27:41;;;;;;;2.10;0.60;;;22.40;99.90;;;;;;5073829;28;20451;-66
2021/07/15 12:30:09;;;;;;;1.97;0.70;;;22.60;99.90;;;;;;5070087;28;20458;-66
2021/07/15 12:32:38;;;;;;;2.00;0.70;;;22.60;99.90;;;;;;5070129;28;20470;-65
2021/07/15 12:35:14;;;;;;;2.47;0.70;;;22.60;99.90;;;;;;5071033;28;20485;-67
2021/07/15 12:37:42;;;;;;;2.53;0.70;;;23.20;99.90;;;;;;5072049;28;20937;-66
2021/07/15 12:40:09;;;;;;;1.80;0.60;;;23.50;99.90;;;;;;5073479;28;21037;-67
2021/07/15 12:42:37;;;;;;;1.87;0.60;;;23.70;99.90;;;;;;5072716;28;20480;-68
2021/07/15 12:45:21;;;;;;;2.60;0.57;;;23.80;99.90;;;;;;5069047;28;20534;-66
2021/07/15 12:48:00;;;;;;;1.90;0.60;;;23.80;99.90;;;;;;5072450;28;20526;-67
2021/07/15 12:50:28;;;;;;;2.27;0.70;;;24.20;99.90;;;;;;5073512;28;20451;-66
2021/07/15 12:53:17;;;;;;;1.70;0.50;;;24.50;99.90;;;;;;5077631;28;20546;-66
2021/07/15 12:55:45;;;;;;;2.87;0.70;;;24.80;99.90;;;;;;5077825;28;20479;-66
2021/07/15 12:58:12;;;;;;;2.10;0.90;;;24.70;99.90;;;;;;5073607;28;20447;-67
2021/07/15 13:00:41;;;;;;;1.83;0.53;;;24.70;99.90;;;;;;5071845;28;20994;-67
2021/07/15 13:03:10;;;;;;;1.70;0.57;;;24.40;99.90;;;;;;5072258;28;21018;-66
2021/07/15 13:05:38;;;;;;;2.07;0.73;;;24.30;99.90;;;;;;5073044;28;20447;-66